BEG airport status
LYBE 291730Z 01005KT CAVOK 31/16 Q1007 NOSIG